Time;durP1;ratioP1;P1;durP2;ratioP2;P2;SDS_P1;SDS_P2;PMS_P1;PMS_P2;Temp;Humidity;BMP_temperature;BMP_pressure;BME280_temperature;BME280_humidity;BME280_pressure;Samples;Min_cycle;Max_cycle;Signal;HPM_P1;HPM_P2
2022/04/03 00:02:21;;;;;;;17.10;11.23;;;1.50;99.90;;;;;;5004604;28;20199;-66
2022/04/03 00:04:47;;;;;;;11.70;10.30;;;1.50;99.90;;;;;;5004776;28;20204;-66
2022/04/03 00:07:12;;;;;;;17.30;13.40;;;1.60;99.90;;;;;;5002395;28;20238;-66
2022/04/03 00:09:38;;;;;;;20.87;11.93;;;1.50;99.90;;;;;;4999742;28;20229;-66
2022/04/03 00:12:04;;;;;;;17.43;11.67;;;1.50;99.90;;;;;;5006439;28;20716;-66
2022/04/03 00:14:29;;;;;;;15.27;11.70;;;1.50;99.90;;;;;;5005320;28;20187;-66
2022/04/03 00:16:55;;;;;;;15.87;12.80;;;1.40;99.90;;;;;;5000512;28;20488;-66
2022/04/03 00:19:21;;;;;;;15.17;12.97;;;1.30;99.90;;;;;;5010364;28;20182;-66
2022/04/03 00:21:46;;;;;;;13.57;12.23;;;1.40;99.90;;;;;;5011665;28;20228;-66
2022/04/03 00:24:12;;;;;;;14.73;12.63;;;1.40;99.90;;;;;;5011043;28;20215;-66
2022/04/03 00:26:37;;;;;;;16.20;12.10;;;1.40;99.90;;;;;;5008107;28;20199;-68
2022/04/03 00:29:04;;;;;;;13.40;12.00;;;1.40;99.90;;;;;;5007675;28;20182;-68
2022/04/03 00:31:29;;;;;;;17.43;12.80;;;1.40;99.90;;;;;;5011677;28;20552;-66
2022/04/03 00:33:55;;;;;;;16.10;13.50;;;1.40;99.90;;;;;;5011355;28;20433;-66
2022/04/03 00:36:20;;;;;;;14.80;13.07;;;1.30;99.90;;;;;;5004061;28;20206;-68
2022/04/03 00:38:46;;;;;;;15.70;12.03;;;1.40;99.90;;;;;;5011138;28;20179;-66
2022/04/03 00:41:13;;;;;;;15.07;13.17;;;1.30;99.90;;;;;;5010943;28;20228;-66
2022/04/03 00:43:38;;;;;;;20.63;12.60;;;1.40;99.90;;;;;;5008366;28;20214;-66
2022/04/03 00:46:05;;;;;;;14.70;12.40;;;1.30;99.90;;;;;;5005686;28;20877;-68
2022/04/03 00:48:31;;;;;;;13.77;12.37;;;1.30;99.90;;;;;;5003659;28;20183;-68
2022/04/03 00:50:57;;;;;;;14.00;11.73;;;1.30;99.90;;;;;;5004797;28;20434;-68
2022/04/03 00:53:23;;;;;;;18.47;14.00;;;1.30;99.90;;;;;;5010273;28;20442;-68
2022/04/03 00:55:50;;;;;;;14.43;12.60;;;1.30;99.90;;;;;;5000946;28;20215;-66
2022/04/03 00:58:16;;;;;;;14.97;13.37;;;1.30;99.90;;;;;;5010042;28;20281;-66
2022/04/03 01:00:42;;;;;;;16.67;13.07;;;1.40;99.90;;;;;;5008287;28;20515;-68
2022/04/03 01:03:08;;;;;;;16.57;13.73;;;1.30;99.90;;;;;;5008646;28;20469;-67
2022/04/03 01:05:34;;;;;;;14.43;12.90;;;1.40;99.90;;;;;;5006244;28;20349;-68
2022/04/03 01:08:00;;;;;;;15.43;12.27;;;1.40;99.90;;;;;;5005383;28;20214;-66
2022/04/03 01:10:25;;;;;;;14.53;11.80;;;1.40;99.90;;;;;;5007911;28;20629;-66
2022/04/03 01:12:51;;;;;;;16.57;13.00;;;1.40;99.90;;;;;;5008767;28;20497;-66
2022/04/03 01:15:18;;;;;;;17.60;13.07;;;1.50;99.90;;;;;;5014378;28;20872;-66
2022/04/03 01:17:44;;;;;;;15.90;12.33;;;1.50;99.90;;;;;;5011661;28;20569;-66
2022/04/03 01:20:10;;;;;;;15.93;13.30;;;1.40;99.90;;;;;;5003586;28;20453;-66
2022/04/03 01:22:37;;;;;;;14.10;11.57;;;1.40;99.90;;;;;;5007540;28;20812;-66
2022/04/03 01:25:04;;;;;;;14.50;12.47;;;1.40;99.90;;;;;;5014705;28;20469;-66
2022/04/03 01:27:29;;;;;;;18.43;11.40;;;1.40;99.90;;;;;;5004793;28;20444;-66
2022/04/03 01:29:57;;;;;;;14.43;12.60;;;1.30;99.90;;;;;;5003755;28;20434;-68
2022/04/03 01:32:23;;;;;;;14.07;12.40;;;1.40;99.90;;;;;;5006222;28;20416;-66
2022/04/03 01:34:48;;;;;;;15.20;12.80;;;1.40;99.90;;;;;;5007968;28;21047;-66
2022/04/03 01:37:14;;;;;;;16.87;14.53;;;1.30;99.90;;;;;;5007132;28;20480;-66
2022/04/03 01:39:39;;;;;;;20.30;14.00;;;1.30;99.90;;;;;;5004223;28;20182;-66
2022/04/03 01:42:05;;;;;;;17.23;13.53;;;1.30;99.90;;;;;;5006414;28;20209;-65
2022/04/03 01:44:31;;;;;;;15.10;13.50;;;1.40;99.90;;;;;;5012357;28;20260;-65
2022/04/03 01:46:57;;;;;;;19.30;13.93;;;1.40;99.90;;;;;;5008363;28;20187;-66
2022/04/03 01:49:22;;;;;;;16.83;13.40;;;1.30;99.90;;;;;;5013130;28;20244;-66
2022/04/03 01:51:48;;;;;;;17.67;12.83;;;1.40;99.90;;;;;;5012832;28;20191;-65
2022/04/03 01:54:13;;;;;;;18.13;13.30;;;1.40;99.90;;;;;;5011968;28;20854;-66
2022/04/03 01:56:40;;;;;;;18.20;13.60;;;1.50;99.90;;;;;;5014006;28;20211;-66
2022/04/03 01:59:06;;;;;;;16.00;13.40;;;1.50;99.90;;;;;;5007504;28;20208;-66
2022/04/03 02:01:33;;;;;;;17.33;12.13;;;1.40;99.90;;;;;;5010707;28;20437;-66
2022/04/03 02:04:00;;;;;;;16.53;12.30;;;1.40;99.90;;;;;;5004721;28;20557;-66
2022/04/03 02:06:25;;;;;;;13.10;11.37;;;1.40;99.90;;;;;;5006258;28;20466;-66
2022/04/03 02:08:51;;;;;;;17.53;13.43;;;1.40;99.90;;;;;;5008158;28;20445;-66
2022/04/03 02:11:16;;;;;;;15.40;12.00;;;1.40;99.90;;;;;;5007097;28;20732;-66
2022/04/03 02:13:42;;;;;;;13.30;11.97;;;1.40;99.90;;;;;;5006010;28;20201;-69
2022/04/03 02:16:09;;;;;;;14.30;12.27;;;1.40;99.90;;;;;;5004559;28;20227;-65
2022/04/03 02:18:35;;;;;;;15.50;12.90;;;1.40;99.90;;;;;;5007921;28;20183;-66
2022/04/03 02:21:01;;;;;;;15.83;11.70;;;1.40;99.90;;;;;;5007606;28;20532;-66
2022/04/03 02:23:26;;;;;;;13.33;12.03;;;1.40;99.90;;;;;;5008045;28;20469;-66
2022/04/03 02:25:52;;;;;;;15.40;12.20;;;1.50;99.90;;;;;;5010769;28;20613;-66
2022/04/03 02:28:18;;;;;;;13.37;10.80;;;1.50;99.90;;;;;;5000737;28;20263;-66
2022/04/03 02:30:44;;;;;;;12.07;10.67;;;1.50;99.90;;;;;;5009122;28;20194;-66
2022/04/03 02:33:09;;;;;;;12.70;11.03;;;1.50;99.90;;;;;;5008810;28;20179;-66
2022/04/03 02:35:35;;;;;;;14.20;12.70;;;1.60;99.90;;;;;;5005768;28;20832;-67
2022/04/03 02:38:00;;;;;;;17.97;12.03;;;1.50;99.90;;;;;;5011155;28;20559;-66
2022/04/03 02:40:26;;;;;;;14.67;12.40;;;1.50;99.90;;;;;;5007952;28;20717;-66
2022/04/03 02:42:54;;;;;;;13.20;11.80;;;1.50;99.90;;;;;;5009374;28;20187;-68
2022/04/03 02:45:20;;;;;;;15.97;14.20;;;1.50;99.90;;;;;;5009522;28;20238;-69
2022/04/03 02:47:54;;;;;;;16.33;12.57;;;1.50;99.90;;;;;;5007201;28;20830;-68
2022/04/03 02:50:21;;;;;;;16.63;11.73;;;1.50;99.90;;;;;;5007804;28;20318;-67
2022/04/03 02:52:51;;;;;;;14.03;12.30;;;1.60;99.90;;;;;;5009640;28;20450;-68
2022/04/03 02:55:18;;;;;;;15.97;12.60;;;1.60;99.90;;;;;;5010130;28;20568;-68
2022/04/03 02:57:43;;;;;;;15.47;13.87;;;1.50;99.90;;;;;;5008871;28;20429;-68
2022/04/03 03:00:14;;;;;;;12.80;11.50;;;1.50;99.90;;;;;;5006238;28;20529;-68
2022/04/03 03:02:40;;;;;;;15.40;13.67;;;1.60;99.90;;;;;;5010411;28;20175;-68
2022/04/03 03:05:07;;;;;;;14.77;12.80;;;1.60;99.90;;;;;;5012523;28;20473;-68
2022/04/03 03:07:37;;;;;;;13.87;11.87;;;1.50;99.90;;;;;;5022005;28;20811;-68
2022/04/03 03:10:07;;;;;;;14.20;11.30;;;1.50;99.90;;;;;;5013143;28;20421;-68
2022/04/03 03:12:33;;;;;;;15.40;12.97;;;1.50;99.90;;;;;;5008744;28;20800;-67
2022/04/03 03:14:59;;;;;;;13.40;11.57;;;1.50;99.90;;;;;;5010551;28;20461;-67
2022/04/03 03:17:25;;;;;;;13.33;11.30;;;1.50;99.90;;;;;;5004891;28;20183;-68
2022/04/03 03:19:50;;;;;;;14.77;13.20;;;1.50;99.90;;;;;;5009509;28;20813;-68
2022/04/03 03:22:17;;;;;;;17.53;11.87;;;1.40;99.90;;;;;;5009375;28;20191;-68
2022/04/03 03:24:43;;;;;;;11.90;10.40;;;1.40;99.90;;;;;;5010960;28;20206;-68
2022/04/03 03:27:08;;;;;;;12.83;11.27;;;1.40;99.90;;;;;;5011223;28;20446;-68
2022/04/03 03:29:34;;;;;;;14.47;12.10;;;1.40;99.90;;;;;;5010336;28;20226;-67
2022/04/03 03:31:59;;;;;;;14.23;12.20;;;1.50;99.90;;;;;;5010006;28;20664;-68
2022/04/03 03:34:25;;;;;;;17.73;13.53;;;1.60;99.90;;;;;;5009848;28;20187;-67
2022/04/03 03:36:50;;;;;;;14.80;12.67;;;1.50;99.90;;;;;;5011290;28;20178;-67
2022/04/03 03:39:16;;;;;;;17.50;12.37;;;1.50;99.90;;;;;;5011254;28;20219;-68
2022/04/03 03:41:42;;;;;;;14.73;12.17;;;1.40;99.90;;;;;;5006563;28;20217;-68
2022/04/03 03:44:10;;;;;;;12.53;11.10;;;1.50;99.90;;;;;;5020726;28;20888;-68
2022/04/03 03:46:37;;;;;;;13.80;12.40;;;1.60;99.90;;;;;;5009204;28;20454;-68
2022/04/03 03:49:03;;;;;;;17.50;11.50;;;1.50;99.90;;;;;;5009175;28;20440;-67
2022/04/03 03:51:29;;;;;;;12.60;11.13;;;1.50;99.90;;;;;;5009284;28;20437;-68
2022/04/03 03:53:54;;;;;;;21.07;13.20;;;1.60;99.90;;;;;;5007839;28;20445;-68
2022/04/03 03:56:20;;;;;;;13.30;11.53;;;1.50;99.90;;;;;;5004145;28;20221;-67
2022/04/03 03:58:46;;;;;;;15.67;12.27;;;1.50;99.90;;;;;;5006350;28;20182;-67
2022/04/03 04:01:12;;;;;;;17.10;10.43;;;1.50;99.90;;;;;;5006081;28;20210;-68
2022/04/03 04:03:38;;;;;;;14.10;11.30;;;1.50;99.90;;;;;;5004457;28;20205;-67
2022/04/03 04:06:03;;;;;;;15.70;14.07;;;1.40;99.90;;;;;;4996807;28;20461;-67
2022/04/03 04:08:29;;;;;;;13.77;11.43;;;1.40;99.90;;;;;;5005547;28;20286;-67
2022/04/03 04:10:54;;;;;;;12.87;10.80;;;1.40;99.90;;;;;;5006143;28;20174;-67
2022/04/03 04:13:20;;;;;;;12.47;11.17;;;1.40;99.90;;;;;;5006958;28;20274;-67
2022/04/03 04:15:45;;;;;;;16.50;12.53;;;1.40;99.90;;;;;;5011784;28;20199;-66
2022/04/03 04:18:11;;;;;;;14.00;12.57;;;1.30;99.90;;;;;;5011319;28;20210;-68
2022/04/03 04:20:37;;;;;;;13.73;11.00;;;1.30;99.90;;;;;;5011628;28;20649;-67
2022/04/03 04:23:03;;;;;;;14.63;10.83;;;1.40;99.90;;;;;;5011838;28;20183;-67
2022/04/03 04:25:28;;;;;;;16.57;11.83;;;1.40;99.90;;;;;;5011644;28;20191;-67
2022/04/03 04:27:54;;;;;;;18.63;14.70;;;1.40;99.90;;;;;;5012923;28;20448;-67
2022/04/03 04:30:20;;;;;;;15.93;12.27;;;1.40;99.90;;;;;;5012076;28;20179;-67
2022/04/03 04:32:45;;;;;;;15.33;13.40;;;1.40;99.90;;;;;;5011508;28;20175;-67
2022/04/03 04:35:13;;;;;;;22.80;14.50;;;1.50;99.90;;;;;;5011491;28;20256;-67
2022/04/03 04:37:39;;;;;;;17.10;13.40;;;1.50;99.90;;;;;;5011789;28;20236;-67
2022/04/03 04:40:05;;;;;;;15.43;12.30;;;1.40;99.90;;;;;;5011340;28;20453;-68
2022/04/03 04:42:31;;;;;;;13.57;11.60;;;1.40;99.90;;;;;;5011401;28;20437;-68
2022/04/03 04:44:57;;;;;;;14.30;12.80;;;1.50;99.90;;;;;;5011384;28;20469;-67
2022/04/03 04:47:23;;;;;;;13.43;12.03;;;1.50;99.90;;;;;;5011834;28;20186;-67
2022/04/03 04:49:48;;;;;;;16.20;12.67;;;1.50;99.90;;;;;;5010266;28;20947;-67
2022/04/03 04:52:14;;;;;;;16.70;13.47;;;1.40;99.90;;;;;;5010921;28;20194;-67
2022/04/03 04:54:39;;;;;;;13.93;12.40;;;1.40;99.90;;;;;;5011324;28;20225;-68
2022/04/03 04:57:05;;;;;;;15.87;12.33;;;1.40;99.90;;;;;;5011620;28;20187;-67
2022/04/03 04:59:30;;;;;;;17.07;12.30;;;1.40;99.90;;;;;;5010863;28;20198;-68
2022/04/03 05:01:58;;;;;;;15.70;12.40;;;1.40;99.90;;;;;;5008201;28;20178;-66
2022/04/03 05:04:24;;;;;;;18.07;12.90;;;1.30;99.90;;;;;;5013945;28;20203;-68
2022/04/03 05:06:50;;;;;;;13.30;11.73;;;1.30;99.90;;;;;;5008162;28;20529;-67
2022/04/03 05:09:17;;;;;;;13.93;12.43;;;1.20;99.90;;;;;;4999317;28;20194;-67
2022/04/03 05:11:45;;;;;;;18.83;14.00;;;1.30;99.90;;;;;;5009568;28;20429;-67
2022/04/03 05:14:10;;;;;;;16.57;12.63;;;1.30;99.90;;;;;;5012096;28;20524;-67
2022/04/03 05:16:37;;;;;;;15.27;13.63;;;1.40;99.90;;;;;;5009675;28;20887;-67
2022/04/03 05:19:02;;;;;;;15.40;12.50;;;1.50;99.90;;;;;;5007678;28;20696;-67
2022/04/03 05:21:28;;;;;;;15.07;12.20;;;1.50;99.90;;;;;;5008570;28;20446;-68
2022/04/03 05:23:53;;;;;;;16.10;13.77;;;1.40;99.90;;;;;;5004304;28;20253;-68
2022/04/03 05:26:19;;;;;;;15.87;13.07;;;1.40;99.90;;;;;;5009511;28;20199;-67
2022/04/03 05:28:44;;;;;;;17.40;13.53;;;1.40;99.90;;;;;;5010567;28;20669;-67
2022/04/03 05:31:11;;;;;;;15.57;12.53;;;1.30;99.90;;;;;;5008329;28;20261;-68
2022/04/03 05:33:37;;;;;;;19.10;15.30;;;1.30;99.90;;;;;;5004462;28;20183;-67
2022/04/03 05:36:03;;;;;;;19.70;14.90;;;1.10;99.90;;;;;;5012074;28;20484;-67
2022/04/03 05:38:29;;;;;;;16.60;12.20;;;1.40;99.90;;;;;;5011018;28;20445;-67
2022/04/03 05:40:56;;;;;;;15.03;12.87;;;1.40;99.90;;;;;;5011453;28;20924;-67
2022/04/03 05:43:21;;;;;;;20.93;14.53;;;1.50;99.90;;;;;;5001649;28;20493;-67
2022/04/03 05:45:47;;;;;;;14.00;12.27;;;1.50;99.90;;;;;;5006264;28;20486;-67
2022/04/03 05:48:12;;;;;;;15.57;13.60;;;1.60;99.90;;;;;;5011085;28;20187;-68
2022/04/03 05:50:38;;;;;;;15.53;12.37;;;1.70;99.90;;;;;;5004615;28;20174;-67
2022/04/03 05:53:04;;;;;;;15.60;13.30;;;1.70;99.90;;;;;;4997823;28;20218;-67
2022/04/03 05:55:30;;;;;;;14.97;12.63;;;1.70;99.90;;;;;;5010443;28;20542;-68
2022/04/03 05:57:55;;;;;;;15.10;12.47;;;1.70;99.90;;;;;;5003400;28;20634;-68
2022/04/03 06:00:22;;;;;;;16.67;14.97;;;1.70;99.90;;;;;;5005335;28;20626;-67
2022/04/03 06:02:56;;;;;;;13.60;12.20;;;1.90;99.90;;;;;;5010091;28;20258;-67
2022/04/03 06:05:24;;;;;;;16.20;13.53;;;2.00;99.90;;;;;;5012442;28;20475;-67
2022/04/03 06:07:50;;;;;;;13.63;12.23;;;2.00;99.90;;;;;;5008860;28;20472;-67
2022/04/03 06:10:18;;;;;;;15.17;11.80;;;2.10;99.90;;;;;;5013002;28;20437;-67
2022/04/03 06:13:04;;;;;;;13.40;12.00;;;2.10;99.90;;;;;;5011159;28;20433;-67
2022/04/03 06:15:33;;;;;;;13.03;11.07;;;2.20;99.90;;;;;;5029218;28;20500;-67
2022/04/03 06:17:59;;;;;;;13.97;9.97;;;2.20;99.90;;;;;;5012576;28;20779;-67
2022/04/03 06:20:25;;;;;;;12.10;10.37;;;2.20;99.90;;;;;;5013261;28;20520;-67
2022/04/03 06:22:51;;;;;;;13.20;11.17;;;2.40;99.90;;;;;;5010102;28;20999;-67
2022/04/03 06:25:19;;;;;;;11.80;10.47;;;2.50;99.90;;;;;;5011856;28;20606;-67
2022/04/03 06:27:44;;;;;;;12.90;11.00;;;2.60;99.90;;;;;;5013112;28;20433;-67
2022/04/03 06:30:10;;;;;;;12.97;11.63;;;2.50;99.90;;;;;;5013341;28;20487;-68
2022/04/03 06:32:36;;;;;;;11.40;10.00;;;2.60;99.90;;;;;;5012790;28;20221;-67
2022/04/03 06:35:02;;;;;;;11.90;9.70;;;2.70;99.90;;;;;;5010142;28;20608;-68
2022/04/03 06:37:27;;;;;;;12.70;9.93;;;2.60;99.90;;;;;;5013722;28;20967;-67
2022/04/03 06:39:53;;;;;;;13.00;10.10;;;2.80;99.90;;;;;;5007495;28;20254;-67
2022/04/03 06:42:19;;;;;;;13.10;10.97;;;2.90;99.90;;;;;;5005680;28;20178;-67
2022/04/03 06:44:44;;;;;;;11.00;9.57;;;3.00;99.90;;;;;;5002638;28;20203;-68
2022/04/03 06:47:10;;;;;;;24.50;18.37;;;3.20;99.90;;;;;;5004840;28;20182;-67
2022/04/03 06:49:36;;;;;;;10.90;9.00;;;3.20;99.90;;;;;;5007036;28;20175;-67
2022/04/03 06:52:02;;;;;;;12.33;9.53;;;3.30;99.90;;;;;;5011633;28;20434;-67
2022/04/03 06:54:27;;;;;;;14.10;8.87;;;3.50;99.90;;;;;;5005168;28;20180;-68
2022/04/03 06:56:53;;;;;;;9.40;8.47;;;3.70;99.90;;;;;;5013085;28;20429;-68
2022/04/03 06:59:19;;;;;;;11.53;8.83;;;3.50;99.90;;;;;;5011929;28;20198;-67
2022/04/03 07:01:44;;;;;;;9.27;8.37;;;3.50;99.90;;;;;;5012911;28;20721;-68
2022/04/03 07:04:10;;;;;;;9.43;8.40;;;3.70;99.90;;;;;;5012426;28;20213;-68
2022/04/03 07:06:35;;;;;;;10.43;9.30;;;3.80;99.90;;;;;;5012187;28;20203;-67
2022/04/03 07:09:01;;;;;;;9.70;7.70;;;4.00;99.90;;;;;;5015089;28;20190;-68
2022/04/03 07:11:26;;;;;;;9.50;8.43;;;4.20;99.90;;;;;;5013634;28;20180;-67
2022/04/03 07:13:52;;;;;;;10.57;8.63;;;4.20;99.90;;;;;;5011255;28;20545;-68
2022/04/03 07:16:17;;;;;;;9.40;7.93;;;4.60;99.90;;;;;;5011006;28;20212;-68
2022/04/03 07:18:43;;;;;;;13.57;8.63;;;4.80;99.90;;;;;;5011866;28;20183;-68
2022/04/03 07:21:09;;;;;;;12.10;8.20;;;5.00;99.90;;;;;;5012914;28;20194;-68
2022/04/03 07:23:34;;;;;;;9.40;8.40;;;5.10;99.90;;;;;;5009260;28;20480;-68
2022/04/03 07:26:00;;;;;;;8.40;7.60;;;5.20;99.90;;;;;;5012580;28;20585;-68
2022/04/03 07:28:25;;;;;;;9.40;8.50;;;5.20;99.90;;;;;;5004999;28;20182;-67
2022/04/03 07:30:51;;;;;;;9.07;8.07;;;5.10;99.90;;;;;;5012580;28;20638;-68
2022/04/03 07:33:20;;;;;;;8.10;7.30;;;5.10;99.90;;;;;;5004569;28;20187;-67
2022/04/03 07:35:46;;;;;;;8.43;7.40;;;5.30;99.90;;;;;;5014636;28;20566;-68
2022/04/03 07:38:12;;;;;;;9.17;7.90;;;5.60;99.90;;;;;;5007636;28;20501;-68
2022/04/03 07:40:37;;;;;;;9.83;7.97;;;5.70;99.90;;;;;;5008253;28;20454;-68
2022/04/03 07:43:03;;;;;;;8.43;7.73;;;5.90;99.90;;;;;;5009600;28;20190;-68
2022/04/03 07:45:28;;;;;;;8.37;7.30;;;5.70;99.90;;;;;;5007093;28;20762;-68
2022/04/03 07:47:54;;;;;;;8.50;6.97;;;5.90;99.90;;;;;;5008830;28;20238;-68
2022/04/03 07:50:20;;;;;;;8.80;7.80;;;5.80;99.90;;;;;;5008822;28;20187;-67
2022/04/03 07:52:47;;;;;;;10.73;8.33;;;6.10;99.90;;;;;;5008195;28;20174;-68
2022/04/03 07:55:13;;;;;;;11.00;7.83;;;6.30;99.90;;;;;;5004555;28;20215;-68
2022/04/03 07:57:40;;;;;;;14.83;7.57;;;6.10;99.90;;;;;;5007643;28;20437;-68
2022/04/03 08:00:08;;;;;;;7.80;7.10;;;6.20;99.90;;;;;;5007991;28;20943;-68
2022/04/03 08:02:37;;;;;;;13.27;8.70;;;6.10;99.90;;;;;;5007470;28;20441;-68
2022/04/03 08:05:03;;;;;;;8.07;7.27;;;5.90;99.90;;;;;;5001077;28;21070;-67
2022/04/03 08:07:41;;;;;;;9.20;8.30;;;5.80;99.90;;;;;;5007394;28;20433;-68
2022/04/03 08:10:08;;;;;;;13.77;8.33;;;5.80;99.90;;;;;;5005536;28;20442;-67
2022/04/03 08:12:38;;;;;;;8.87;7.97;;;5.80;99.90;;;;;;5003866;28;20438;-67
2022/04/03 08:15:05;;;;;;;9.70;8.43;;;5.40;99.90;;;;;;5009298;28;20485;-67
2022/04/03 08:17:31;;;;;;;8.00;6.73;;;5.50;99.90;;;;;;5008631;28;20482;-67
2022/04/03 08:19:57;;;;;;;7.90;7.20;;;5.60;99.90;;;;;;5007880;28;20895;-68
2022/04/03 08:22:23;;;;;;;9.77;8.53;;;5.60;99.90;;;;;;5010322;28;20442;-68
2022/04/03 08:24:49;;;;;;;9.17;8.30;;;5.30;99.90;;;;;;5005414;28;20222;-68
2022/04/03 08:27:16;;;;;;;16.17;12.93;;;5.10;99.90;;;;;;4999762;28;20438;-68
2022/04/03 08:29:41;;;;;;;11.70;8.60;;;5.20;99.90;;;;;;5002688;28;20496;-68
2022/04/03 08:32:07;;;;;;;8.87;8.00;;;5.40;99.90;;;;;;5003121;28;20937;-68
2022/04/03 08:34:33;;;;;;;10.47;9.37;;;5.50;99.90;;;;;;5012632;28;20183;-68
2022/04/03 08:36:58;;;;;;;9.10;8.20;;;5.30;99.90;;;;;;5006955;28;20784;-68
2022/04/03 08:39:25;;;;;;;9.47;8.43;;;5.30;99.90;;;;;;5008696;28;20206;-68
2022/04/03 08:41:51;;;;;;;9.50;8.57;;;5.40;99.90;;;;;;5008611;28;20171;-68
2022/04/03 08:44:17;;;;;;;9.50;8.20;;;5.60;99.90;;;;;;5004079;28;20808;-67
2022/04/03 08:46:47;;;;;;;8.30;7.60;;;5.60;99.90;;;;;;5007779;28;20551;-67
2022/04/03 08:49:12;;;;;;;8.23;7.53;;;5.90;99.90;;;;;;5001611;28;20199;-67
2022/04/03 08:51:39;;;;;;;11.03;7.70;;;6.00;99.90;;;;;;5005285;28;20457;-67
2022/04/03 08:54:06;;;;;;;11.07;9.10;;;6.30;99.90;;;;;;5005604;28;20661;-67
2022/04/03 08:56:31;;;;;;;9.90;7.90;;;6.60;99.90;;;;;;5007509;28;20474;-67
2022/04/03 08:59:00;;;;;;;8.33;7.37;;;7.00;99.90;;;;;;5001992;28;20445;-67
2022/04/03 09:01:25;;;;;;;7.70;7.00;;;7.40;99.90;;;;;;5006133;28;20543;-67
2022/04/03 09:03:51;;;;;;;8.70;7.40;;;7.40;99.90;;;;;;5008627;28;20471;-67
2022/04/03 09:06:18;;;;;;;10.60;8.20;;;7.30;99.90;;;;;;5004122;28;20287;-67
2022/04/03 09:08:45;;;;;;;7.03;6.53;;;6.80;99.90;;;;;;5007419;28;20179;-67
2022/04/03 09:11:12;;;;;;;8.60;7.70;;;6.60;99.90;;;;;;5004078;28;20439;-67
2022/04/03 09:13:39;;;;;;;6.67;6.00;;;6.60;99.90;;;;;;5008201;28;20437;-67
2022/04/03 09:16:05;;;;;;;8.63;7.50;;;6.30;99.90;;;;;;5007513;28;20504;-68
2022/04/03 09:18:47;;;;;;;9.70;7.70;;;6.10;99.90;;;;;;5007870;28;21174;-67
2022/04/03 09:21:24;;;;;;;7.93;6.97;;;5.90;99.90;;;;;;5008660;28;20807;-68
2022/04/03 09:24:04;;;;;;;7.90;7.10;;;6.90;99.90;;;;;;5011985;28;20460;-68
2022/04/03 09:26:31;;;;;;;7.93;6.70;;;8.50;99.90;;;;;;5011010;28;20453;-67
2022/04/03 09:29:11;;;;;;;8.70;7.93;;;9.30;99.90;;;;;;5009330;28;20452;-67
2022/04/03 09:31:37;;;;;;;8.10;7.40;;;8.90;99.90;;;;;;5007850;28;20438;-67
2022/04/03 09:34:05;;;;;;;8.90;8.00;;;8.00;99.90;;;;;;5011494;28;20845;-68
2022/04/03 09:36:32;;;;;;;7.60;7.00;;;7.80;99.90;;;;;;5011409;28;20472;-67
2022/04/03 09:39:12;;;;;;;8.20;7.40;;;7.40;99.90;;;;;;5004861;28;20525;-67
2022/04/03 09:42:02;;;;;;;10.53;8.00;;;6.90;99.90;;;;;;5003953;28;20441;-67
2022/04/03 09:44:28;;;;;;;11.03;6.70;;;6.30;99.90;;;;;;5009808;28;20458;-67
2022/04/03 09:47:14;;;;;;;9.70;8.13;;;6.00;99.90;;;;;;5011489;28;20521;-67
2022/04/03 09:49:51;;;;;;;6.20;5.60;;;5.80;99.90;;;;;;5003486;28;20959;-68
2022/04/03 09:52:46;;;;;;;7.70;6.97;;;5.80;99.90;;;;;;5011100;28;20496;-67
2022/04/03 09:55:20;;;;;;;6.90;6.33;;;5.80;99.90;;;;;;5008587;28;20470;-68
2022/04/03 09:58:03;;;;;;;7.20;6.47;;;5.80;99.90;;;;;;5009189;28;20448;-68
2022/04/03 10:00:30;;;;;;;7.77;6.53;;;5.70;99.90;;;;;;5013923;28;20434;-68
2022/04/03 10:03:02;;;;;;;6.20;5.70;;;5.90;99.90;;;;;;5010252;28;22105;-69
2022/04/03 10:05:36;;;;;;;5.47;4.97;;;7.10;99.90;;;;;;5012719;28;20469;-68
2022/04/03 10:08:03;;;;;;;6.13;5.60;;;7.80;99.90;;;;;;5011361;28;20464;-69
2022/04/03 10:10:30;;;;;;;7.10;6.17;;;7.80;99.90;;;;;;5010646;28;20508;-68
2022/04/03 10:12:56;;;;;;;7.13;6.50;;;7.20;99.90;;;;;;5008984;28;20495;-68
2022/04/03 10:15:23;;;;;;;7.10;5.40;;;6.30;99.90;;;;;;5009656;28;20505;-68
2022/04/03 10:17:49;;;;;;;6.63;6.00;;;5.90;99.90;;;;;;5010875;28;20495;-69
2022/04/03 10:20:14;;;;;;;6.87;6.17;;;5.80;99.90;;;;;;5010122;28;20446;-68
2022/04/03 10:22:44;;;;;;;7.23;5.67;;;5.70;99.90;;;;;;5010439;28;20190;-67
2022/04/03 10:25:14;;;;;;;8.70;6.60;;;5.30;99.90;;;;;;5007273;28;20203;-69
2022/04/03 10:27:42;;;;;;;8.50;6.60;;;5.10;99.90;;;;;;5006352;28;20507;-68
2022/04/03 10:30:10;;;;;;;7.03;6.13;;;5.00;99.90;;;;;;5010341;28;20437;-68
2022/04/03 10:32:36;;;;;;;6.23;5.60;;;4.70;99.90;;;;;;5006216;28;20524;-68
2022/04/03 10:35:08;;;;;;;12.50;5.90;;;4.70;99.90;;;;;;5023593;28;20457;-68
2022/04/03 10:37:37;;;;;;;6.00;5.40;;;4.60;99.90;;;;;;5010408;28;20433;-68
2022/04/03 10:40:11;;;;;;;5.47;4.97;;;4.60;99.90;;;;;;5006783;28;20503;-68
2022/04/03 10:43:08;;;;;;;7.20;6.23;;;4.60;99.90;;;;;;5010104;28;20445;-68
2022/04/03 10:45:35;;;;;;;6.20;5.60;;;4.30;99.90;;;;;;4999489;28;20482;-68
2022/04/03 10:48:19;;;;;;;12.80;5.70;;;4.30;99.90;;;;;;5011760;28;20448;-68
2022/04/03 10:51:20;;;;;;;6.80;6.10;;;4.10;99.90;;;;;;5007476;28;20496;-68
2022/04/03 10:53:49;;;;;;;7.20;5.70;;;3.80;99.90;;;;;;5009732;28;20466;-68
2022/04/03 10:56:22;;;;;;;9.00;6.10;;;3.80;99.90;;;;;;5012539;28;20507;-68
2022/04/03 10:58:49;;;;;;;6.53;5.20;;;3.90;99.90;;;;;;5008945;28;20430;-68
2022/04/03 11:01:34;;;;;;;6.20;5.60;;;4.20;99.90;;;;;;5006801;28;20825;-67
2022/04/03 11:04:09;;;;;;;7.60;5.67;;;4.60;99.90;;;;;;5010017;28;20886;-68
2022/04/03 11:06:39;;;;;;;6.77;5.03;;;4.80;99.90;;;;;;5004985;28;20461;-68
2022/04/03 11:09:12;;;;;;;6.97;5.40;;;4.80;99.90;;;;;;5018265;28;20516;-68
2022/04/03 11:11:44;;;;;;;6.50;5.63;;;4.90;99.90;;;;;;5010044;28;20413;-68
2022/04/03 11:14:11;;;;;;;6.00;5.40;;;5.00;99.90;;;;;;5009966;28;20497;-68
2022/04/03 11:16:50;;;;;;;5.93;5.33;;;5.20;99.90;;;;;;5004482;28;21033;-68
2022/04/03 11:19:35;;;;;;;6.90;4.97;;;5.40;99.90;;;;;;5006533;28;20947;-68
2022/04/03 11:22:01;;;;;;;6.07;5.50;;;5.50;99.90;;;;;;5007182;28;20460;-68
2022/04/03 11:24:27;;;;;;;8.73;5.93;;;5.50;99.90;;;;;;5008557;28;20557;-68
2022/04/03 11:26:54;;;;;;;8.47;7.77;;;5.80;99.90;;;;;;5008930;28;20448;-68
2022/04/03 11:29:19;;;;;;;7.93;5.90;;;6.00;99.90;;;;;;5009310;28;20465;-67
2022/04/03 11:31:46;;;;;;;5.70;5.20;;;5.70;99.90;;;;;;5006682;28;20952;-68
2022/04/03 11:34:12;;;;;;;6.03;5.53;;;5.60;99.90;;;;;;5002527;28;20669;-68
2022/04/03 11:36:38;;;;;;;5.73;4.83;;;5.90;99.90;;;;;;5004471;28;20466;-68
2022/04/03 11:39:08;;;;;;;11.10;5.60;;;6.70;99.90;;;;;;5002614;28;20445;-68
2022/04/03 11:41:35;;;;;;;6.30;5.57;;;7.40;99.90;;;;;;5011199;28;20240;-68
2022/04/03 11:44:03;;;;;;;6.83;6.03;;;9.90;99.90;;;;;;5003557;28;20897;-68
2022/04/03 11:46:38;;;;;;;5.37;4.97;;;11.20;99.90;;;;;;5002727;28;20505;-68
2022/04/03 11:49:14;;;;;;;5.67;5.17;;;10.80;99.90;;;;;;5006425;28;20524;-68
2022/04/03 11:51:41;;;;;;;5.53;5.03;;;8.80;99.90;;;;;;5002855;28;20964;-68
2022/04/03 11:54:07;;;;;;;5.63;5.23;;;8.70;99.90;;;;;;5005041;28;20442;-68
2022/04/03 11:56:35;;;;;;;5.47;4.90;;;8.70;99.90;;;;;;5009009;28;20504;-68
2022/04/03 11:59:03;;;;;;;4.83;4.43;;;8.60;99.90;;;;;;5007052;28;20594;-68
2022/04/03 12:01:30;;;;;;;5.60;5.10;;;7.70;99.90;;;;;;5007626;28;20522;-68
2022/04/03 12:04:08;;;;;;;5.30;4.80;;;7.30;99.90;;;;;;5009060;28;20477;-68
2022/04/03 12:06:37;;;;;;;6.00;4.07;;;7.20;99.90;;;;;;5009077;28;20536;-68
2022/04/03 12:09:11;;;;;;;5.40;4.73;;;6.80;99.90;;;;;;5006012;28;20533;-68
2022/04/03 12:11:42;;;;;;;5.77;5.27;;;6.70;99.90;;;;;;5008442;28;20473;-68
2022/04/03 12:14:09;;;;;;;6.03;5.43;;;6.50;99.90;;;;;;5024024;28;20815;-68
2022/04/03 12:16:39;;;;;;;5.90;5.17;;;6.30;99.90;;;;;;5005091;28;20992;-67
2022/04/03 12:19:08;;;;;;;6.33;5.70;;;6.30;99.90;;;;;;5006100;28;20434;-68
2022/04/03 12:21:40;;;;;;;5.93;5.33;;;6.50;99.90;;;;;;5008599;28;20855;-68
2022/04/03 12:24:24;;;;;;;5.50;4.53;;;6.60;99.90;;;;;;5008902;28;20500;-67
2022/04/03 12:26:57;;;;;;;9.00;8.20;;;6.50;99.90;;;;;;5003045;28;20434;-68
2022/04/03 12:29:26;;;;;;;5.87;5.30;;;6.10;99.90;;;;;;5006687;28;20442;-68
2022/04/03 12:32:01;;;;;;;6.57;5.20;;;6.10;99.90;;;;;;5004876;28;20936;-68
2022/04/03 12:34:28;;;;;;;4.90;4.50;;;6.30;99.90;;;;;;5008590;28;20487;-69
2022/04/03 12:36:56;;;;;;;6.20;4.77;;;6.40;99.90;;;;;;5008652;28;20936;-68
2022/04/03 12:39:35;;;;;;;4.67;4.20;;;6.50;99.90;;;;;;5006038;28;20438;-68
2022/04/03 12:42:11;;;;;;;5.43;4.30;;;6.80;99.90;;;;;;5008626;28;20503;-68
2022/04/03 12:44:56;;;;;;;8.33;7.30;;;6.70;99.90;;;;;;5007568;28;20472;-66
2022/04/03 12:47:28;;;;;;;6.37;5.77;;;6.00;99.90;;;;;;5007183;28;20439;-68
2022/04/03 12:50:05;;;;;;;7.40;5.90;;;6.10;99.90;;;;;;5006237;28;20462;-68